Time;durP1;ratioP1;P1;durP2;ratioP2;P2;SDS_P1;SDS_P2;PMS_P1;PMS_P2;Temp;Humidity;BMP_temperature;BMP_pressure;BME280_temperature;BME280_humidity;BME280_pressure;Samples;Min_cycle;Max_cycle;Signal;HPM_P1;HPM_P2
2023/10/17 00:01:34;;;;;;;19.30;9.70;;;;;;;6.61;100.00;102080.31;5025102;28;20075;-75
2023/10/17 00:04:24;;;;;;;14.80;9.18;;;;;;;6.58;100.00;102079.53;5025909;28;20068;-76
2023/10/17 00:06:50;;;;;;;17.83;7.90;;;;;;;6.64;100.00;102074.06;5025217;28;20060;-75
2023/10/17 00:09:24;;;;;;;14.23;10.48;;;;;;;6.73;100.00;102084.41;5028299;28;20121;-76
2023/10/17 00:14:25;;;;;;;17.73;11.52;;;;;;;6.87;100.00;102076.94;5025649;28;20038;-75
2023/10/17 00:16:54;;;;;;;18.23;10.88;;;;;;;6.90;100.00;102063.59;5026000;28;20045;-75
2023/10/17 00:19:25;;;;;;;20.30;12.65;;;;;;;6.88;100.00;102068.09;5032981;28;20037;-78
2023/10/17 00:21:51;;;;;;;20.23;11.23;;;;;;;6.92;100.00;102071.50;5030973;28;20894;-77
2023/10/17 00:24:19;;;;;;;17.38;11.40;;;;;;;6.91;100.00;102064.47;5029512;28;20115;-76
2023/10/17 00:26:47;;;;;;;17.92;11.60;;;;;;;6.97;100.00;102072.22;5023161;28;20030;-76
2023/10/17 00:29:14;;;;;;;15.07;9.30;;;;;;;6.97;100.00;102070.44;5027005;28;20143;-76
2023/10/17 00:31:40;;;;;;;12.43;9.10;;;;;;;6.99;100.00;102073.94;5026671;28;20042;-75
2023/10/17 00:34:16;;;;;;;17.33;11.20;;;;;;;6.98;100.00;102072.22;5029192;28;20141;-75
2023/10/17 00:37:00;;;;;;;26.02;12.60;;;;;;;6.90;100.00;102066.25;5036554;28;20038;-75
2023/10/17 00:39:29;;;;;;;22.52;11.00;;;;;;;6.92;100.00;102072.38;5019046;28;20040;-74
2023/10/17 00:44:32;;;;;;;21.02;10.07;;;;;;;6.95;100.00;102059.03;5030466;28;20037;-74
2023/10/17 00:46:59;;;;;;;19.27;10.63;;;;;;;6.98;100.00;102060.75;5025578;28;20052;-76
2023/10/17 00:49:29;;;;;;;18.48;12.18;;;;;;;6.93;100.00;102060.88;5015953;28;20045;-76
2023/10/17 00:51:55;;;;;;;18.33;11.90;;;;;;;6.96;100.00;102050.16;5029017;28;20550;-75
2023/10/17 00:54:24;;;;;;;20.00;11.60;;;;;;;6.86;100.00;102050.47;5020537;28;20097;-77
2023/10/17 00:56:52;;;;;;;18.80;10.93;;;;;;;6.93;100.00;102047.63;5028127;28;20044;-74
2023/10/17 00:59:17;;;;;;;19.88;12.60;;;;;;;6.91;100.00;102045.91;5031200;28;20041;-76
2023/10/17 01:01:48;;;;;;;23.20;11.23;;;;;;;6.96;100.00;102046.63;5032625;28;20151;-75
2023/10/17 01:04:14;;;;;;;20.35;12.98;;;;;;;6.96;100.00;102042.19;5059717;28;20038;-74
2023/10/17 01:06:40;;;;;;;22.52;14.15;;;;;;;7.01;100.00;102039.41;5040168;28;20875;-75
2023/10/17 01:09:17;;;;;;;28.15;13.25;;;;;;;6.97;100.00;102043.06;5027577;28;20045;-75
2023/10/17 01:11:45;;;;;;;18.90;11.75;;;;;;;7.00;100.00;102035.91;5058087;28;20151;-76
2023/10/17 01:14:11;;;;;;;20.58;12.18;;;;;;;7.01;100.00;102040.28;5028709;28;20056;-75
2023/10/17 01:16:39;;;;;;;25.20;12.50;;;;;;;6.98;100.00;102042.19;5029478;28;20041;-74
2023/10/17 01:19:06;;;;;;;23.20;11.60;;;;;;;6.99;100.00;102041.25;5028116;28;20034;-74
2023/10/17 01:21:33;;;;;;;19.15;12.05;;;;;;;6.86;100.00;102043.38;5034680;28;20152;-75
2023/10/17 01:23:58;;;;;;;23.05;12.82;;;;;;;6.81;100.00;102039.13;5029682;28;26820;-75
2023/10/17 01:26:24;;;;;;;24.27;13.35;;;;;;;6.77;100.00;102040.13;5030934;28;20768;-75
2023/10/17 01:28:51;;;;;;;16.38;12.13;;;;;;;6.74;100.00;102041.09;5031559;28;25017;-76
2023/10/17 01:31:24;;;;;;;26.30;13.60;;;;;;;6.76;100.00;102033.94;5030589;28;21079;-75
2023/10/17 01:33:52;;;;;;;20.80;12.93;;;;;;;6.79;100.00;102040.97;5025034;28;20029;-74
2023/10/17 01:36:19;;;;;;;20.65;12.30;;;;;;;6.79;100.00;102031.22;5040291;28;20053;-75
2023/10/17 01:38:46;;;;;;;25.55;14.20;;;;;;;6.88;100.00;102038.06;5028776;28;20076;-74
2023/10/17 01:41:12;;;;;;;20.45;12.50;;;;;;;6.94;100.00;102032.56;5038391;28;20040;-75
2023/10/17 01:43:45;;;;;;;22.83;12.55;;;;;;;6.98;100.00;102034.22;5035588;28;20045;-76
2023/10/17 01:46:14;;;;;;;;;;;;;;;6.98;100.00;102029.78;5036022;28;20154;-77
2023/10/17 01:48:44;;;;;;;22.38;13.15;;;;;;;7.01;100.00;102031.47;5061855;28;19921;-76
2023/10/17 01:51:12;;;;;;;20.33;12.20;;;;;;;7.01;100.00;102021.72;5039372;28;20029;-75
2023/10/17 01:53:39;;;;;;;25.63;12.05;;;;;;;6.99;100.00;102025.34;5028711;28;20029;-76
2023/10/17 01:56:13;;;;;;;21.60;13.48;;;;;;;7.05;100.00;102027.81;5041958;28;20954;-76
2023/10/17 01:58:50;;;;;;;25.50;13.25;;;;;;;7.10;100.00;102015.28;5055781;28;20116;-76
2023/10/17 02:01:24;;;;;;;18.45;12.85;;;;;;;7.03;100.00;102015.50;5018138;28;20034;-77
2023/10/17 02:04:01;;;;;;;20.15;12.57;;;;;;;7.03;100.00;102020.81;5046647;28;20120;-76
2023/10/17 02:06:28;;;;;;;16.48;11.77;;;;;;;7.06;100.00;102023.38;5033163;28;20052;-76
2023/10/17 02:08:54;;;;;;;18.50;12.60;;;;;;;7.08;100.00;102024.19;5036463;28;20056;-75
2023/10/17 02:11:23;;;;;;;29.58;12.82;;;;;;;7.09;100.00;102025.94;5033540;28;20111;-76
2023/10/17 02:13:56;;;;;;;18.35;12.27;;;;;;;7.07;100.00;102030.41;5034367;28;20550;-76
2023/10/17 02:16:26;;;;;;;22.85;15.07;;;;;;;6.99;100.00;102018.25;5033919;28;20075;-74
2023/10/17 02:18:58;;;;;;;20.98;13.30;;;;;;;7.02;100.00;102022.59;5023780;28;20040;-76
2023/10/17 02:21:24;;;;;;;22.20;13.70;;;;;;;6.94;100.00;102025.47;5033103;28;20060;-76
2023/10/17 02:23:50;;;;;;;26.13;14.05;;;;;;;6.92;100.00;102032.59;5041411;28;20060;-76
2023/10/17 02:26:23;;;;;;;20.73;13.18;;;;;;;6.95;100.00;102027.22;5032715;28;20049;-75
2023/10/17 02:28:59;;;;;;;22.23;14.32;;;;;;;6.86;100.00;102016.88;5024661;28;20042;-76
2023/10/17 02:31:29;;;;;;;21.75;13.75;;;;;;;6.88;100.00;102022.16;5021492;28;20079;-76
2023/10/17 02:33:58;;;;;;;25.90;14.43;;;;;;;6.93;100.00;102018.44;5037732;28;20923;-76
2023/10/17 02:36:26;;;;;;;25.70;16.13;;;;;;;6.96;100.00;102020.97;5028849;28;20045;-76
2023/10/17 02:38:52;;;;;;;21.45;14.93;;;;;;;6.83;100.00;102016.97;5027193;28;21034;-76
2023/10/17 02:41:24;;;;;;;20.80;14.30;;;;;;;6.91;100.00;102014.09;5034956;28;21131;-74
2023/10/17 02:43:53;;;;;;;25.63;14.38;;;;;;;6.89;100.00;102005.31;5024394;28;20035;-75
2023/10/17 02:46:19;;;;;;;27.70;16.50;;;;;;;6.87;100.00;102001.81;5025273;28;20041;-75
2023/10/17 02:48:47;;;;;;;19.63;14.13;;;;;;;6.85;100.00;102004.53;5030775;28;20033;-74
2023/10/17 02:53:53;;;;;;;21.00;15.15;;;;;;;6.89;100.00;101997.38;5036793;28;20045;-77
2023/10/17 02:56:21;;;;;;;;;;;;;;;6.90;100.00;101999.09;5024098;28;20581;-76
2023/10/17 02:58:49;;;;;;;27.88;14.63;;;;;;;6.86;100.00;102002.75;5035570;28;19920;-76
2023/10/17 03:01:15;;;;;;;25.08;15.43;;;;;;;6.88;100.00;102001.81;5040325;28;20040;-75
2023/10/17 03:03:41;;;;;;;27.20;14.80;;;;;;;6.92;100.00;102014.03;5027706;28;20026;-74
2023/10/17 03:06:08;;;;;;;24.20;16.08;;;;;;;6.94;100.00;102014.88;5028178;28;20066;-76
2023/10/17 03:08:36;;;;;;;21.08;14.27;;;;;;;6.86;100.00;102011.56;5022340;28;20041;-76
2023/10/17 03:11:02;;;;;;;23.63;15.05;;;;;;;6.86;100.00;102011.56;5038798;28;20994;-76
2023/10/17 03:13:40;;;;;;;23.45;15.05;;;;;;;6.82;100.00;102015.22;5035284;28;20585;-76
2023/10/17 03:16:25;;;;;;;26.35;15.52;;;;;;;6.98;100.00;102015.66;5031861;28;20103;-75
2023/10/17 03:18:58;;;;;;;21.95;14.82;;;;;;;6.99;100.00;102012.94;5020814;28;20025;-75
2023/10/17 03:21:34;;;;;;;20.95;15.05;;;;;;;7.03;100.00;102008.44;5059780;28;20041;-75
2023/10/17 03:24:01;;;;;;;24.88;15.02;;;;;;;6.98;100.00;102000.63;5030106;28;20033;-74
2023/10/17 03:26:29;;;;;;;25.70;14.85;;;;;;;6.98;100.00;101995.31;5032552;28;20085;-74
2023/10/17 03:28:54;;;;;;;24.40;15.75;;;;;;;7.03;100.00;101996.94;5024885;28;20990;-76
2023/10/17 03:31:20;;;;;;;22.75;14.85;;;;;;;6.92;100.00;101997.25;5026033;28;20045;-76
2023/10/17 03:33:51;;;;;;;21.00;14.32;;;;;;;6.94;100.00;102004.25;5042959;28;20038;-76
2023/10/17 03:37:26;;;;;;;25.45;15.68;;;;;;;7.00;100.00;102001.44;5025641;28;20042;-75
2023/10/17 03:39:20;;;;;;;21.63;14.25;;;;;;;7.06;100.00;101988.91;5023407;28;20081;-75
2023/10/17 03:41:45;;;;;;;21.00;14.82;;;;;;;7.04;100.00;101994.25;5032292;28;20040;-74
2023/10/17 03:44:15;;;;;;;25.45;15.38;;;;;;;6.97;100.00;101990.03;5031376;28;20033;-76
2023/10/17 03:46:48;;;;;;;23.55;16.65;;;;;;;7.02;100.00;101998.72;5022858;28;20053;-75
2023/10/17 03:49:18;;;;;;;24.05;15.88;;;;;;;7.01;100.00;102003.16;5032362;28;20050;-75
2023/10/17 03:51:46;;;;;;;27.30;16.55;;;;;;;7.03;100.00;101996.94;5025486;28;20862;-76
2023/10/17 03:54:17;;;;;;;21.52;13.90;;;;;;;7.08;100.00;102006.50;5033159;28;20340;-75
2023/10/17 03:56:49;;;;;;;23.95;14.43;;;;;;;7.04;100.00;101999.56;5027367;28;20034;-76
2023/10/17 04:01:47;;;;;;;25.23;14.55;;;;;;;7.05;100.00;102001.28;5029794;28;20429;-76
2023/10/17 04:04:14;;;;;;;26.33;15.75;;;;;;;6.94;100.00;102012.22;5032841;28;20037;-76
2023/10/17 04:06:39;;;;;;;22.80;15.20;;;;;;;7.00;100.00;102009.38;5025996;28;20049;-76
2023/10/17 04:09:26;;;;;;;27.58;14.70;;;;;;;7.07;100.00;102009.19;5020964;28;20766;-76
2023/10/17 04:12:06;;;;;;;26.42;14.85;;;;;;;7.06;100.00;102010.13;5030357;28;20033;-75
2023/10/17 04:14:35;;;;;;;19.98;13.27;;;;;;;7.11;100.00;102010.84;5028471;28;20715;-75
2023/10/17 04:17:05;;;;;;;21.50;15.48;;;;;;;7.08;100.00;102005.63;5030801;28;20037;-76
2023/10/17 04:19:31;;;;;;;19.55;13.27;;;;;;;7.09;100.00;102007.38;5036755;28;20120;-74
2023/10/17 04:24:27;;;;;;;23.48;15.60;;;;;;;7.10;100.00;102015.28;5024005;28;20132;-77
2023/10/17 04:27:05;;;;;;;20.30;14.25;;;;;;;7.05;100.00;102021.63;5034652;28;20033;-75
2023/10/17 04:29:31;;;;;;;20.08;14.82;;;;;;;7.00;100.00;102014.69;5029522;28;20154;-73
2023/10/17 04:31:57;;;;;;;23.63;14.68;;;;;;;7.04;100.00;102018.13;5025916;28;20037;-74
2023/10/17 04:34:22;;;;;;;21.70;14.18;;;;;;;7.03;100.00;102020.81;5026570;28;20041;-75
2023/10/17 04:36:52;;;;;;;21.98;14.23;;;;;;;7.07;100.00;102025.09;5029584;28;20033;-76
2023/10/17 04:44:23;;;;;;;23.08;14.60;;;;;;;6.94;100.00;102012.22;5027286;28;20041;-76
2023/10/17 04:49:30;;;;;;;23.63;15.20;;;;;;;7.01;100.00;102013.75;5030626;28;20160;-74
2023/10/17 04:52:06;;;;;;;25.17;15.10;;;;;;;6.94;100.00;102001.63;5028582;28;20040;-76
2023/10/17 04:57:05;;;;;;;23.02;14.52;;;;;;;6.96;100.00;102002.41;5027564;28;20112;-76
2023/10/17 06:18:49;;;;;;;55.88;27.58;;;;;;;6.29;100.00;102017.59;5032052;28;20104;-76
2023/10/17 06:21:19;;;;;;;56.40;29.60;;;;;;;6.26;100.00;102017.66;5034078;28;20123;-76
2023/10/17 06:32:16;;;;;;;54.95;32.00;;;;;;;6.31;100.00;102030.78;5009195;28;20045;-76
2023/10/17 06:34:44;;;;;;;56.17;31.77;;;;;;;6.28;100.00;102022.94;5009212;28;20053;-76
2023/10/17 06:37:11;;;;;;;57.38;30.98;;;;;;;6.37;100.00;102023.53;5008630;28;20046;-77
2023/10/17 06:39:36;;;;;;;49.15;29.63;;;;;;;6.37;100.00;102027.97;5009053;28;20033;-76
2023/10/17 06:42:15;;;;;;;59.25;32.33;;;;;;;6.34;100.00;102028.06;5008049;28;20049;-76
2023/10/17 06:44:53;;;;;;;56.17;32.10;;;;;;;6.42;100.00;102026.06;5008563;28;20178;-77
2023/10/17 06:47:23;;;;;;;58.15;31.05;;;;;;;6.48;100.00;102026.78;5008769;28;20038;-75
2023/10/17 06:53:27;;;;;;;59.10;32.47;;;;;;;6.45;100.00;102026.84;5008553;28;20149;-76
2023/10/17 06:55:22;;;;;;;55.30;30.80;;;;;;;6.53;100.00;102031.97;4995554;28;20050;-76
2023/10/17 06:57:52;;;;;;;54.13;30.67;;;;;;;6.56;100.00;102031.00;5013025;28;20041;-76
2023/10/17 07:00:27;;;;;;;58.42;30.77;;;;;;;6.63;100.00;102024.63;5017744;28;20053;-77
2023/10/17 07:02:56;;;;;;;55.70;29.60;;;;;;;6.59;100.00;102028.25;5026676;28;20034;-76
2023/10/17 07:05:22;;;;;;;50.03;28.33;;;;;;;6.65;100.00;102025.44;5028686;28;20029;-76
2023/10/17 07:07:57;;;;;;;59.33;30.48;;;;;;;6.90;100.00;102028.25;5024317;28;20156;-76
2023/10/17 07:10:53;;;;;;;52.72;28.33;;;;;;;6.95;100.00;102027.22;5030390;28;20184;-76
2023/10/17 07:19:46;;;;;;;51.72;25.83;;;;;;;8.61;100.00;102009.41;5035926;28;20037;-76
2023/10/17 07:24:33;;;;;;;49.45;25.13;;;;;;;8.88;100.00;101996.00;5034627;28;20040;-77
2023/10/17 07:27:11;;;;;;;46.15;23.50;;;;;;;8.10;100.00;101998.81;5024160;28;21187;-76
2023/10/17 07:29:37;;;;;;;47.92;23.27;;;;;;;7.80;100.00;102012.19;5016981;28;20077;-76
2023/10/17 07:32:09;;;;;;;41.40;24.33;;;;;;;7.56;100.00;102021.81;5020342;28;20041;-76
2023/10/17 07:34:36;;;;;;;30.13;17.67;;;;;;;7.62;100.00;102023.41;5017785;28;20037;-76
2023/10/17 07:37:22;;;;;;;47.03;24.20;;;;;;;7.64;100.00;102026.91;5029715;28;20068;-76
2023/10/17 07:42:40;;;;;;;39.78;22.42;;;;;;;7.68;100.00;102010.81;5022150;28;20042;-76
2023/10/17 07:45:13;;;;;;;;;;;;;;;7.69;100.00;102017.84;5017531;28;20136;-76
2023/10/17 07:47:41;;;;;;;35.75;20.88;;;;;;;7.74;100.00;102017.72;5029020;28;19960;-76
2023/10/17 07:50:12;;;;;;;39.38;20.90;;;;;;;7.81;100.00;102021.03;5030635;28;20053;-77
2023/10/17 07:52:43;;;;;;;37.10;21.63;;;;;;;7.86;100.00;102016.44;5032706;28;20046;-77
2023/10/17 07:55:23;;;;;;;44.03;22.40;;;;;;;7.95;100.00;102013.47;5030967;28;20040;-76
2023/10/17 07:57:52;;;;;;;42.20;22.77;;;;;;;7.95;100.00;102017.00;5024811;28;20041;-76
2023/10/17 08:00:26;;;;;;;39.50;22.55;;;;;;;8.02;100.00;102021.16;5029951;28;20041;-76
2023/10/17 08:02:55;;;;;;;36.28;21.67;;;;;;;8.10;100.00;102015.59;5028160;28;20048;-76
2023/10/17 08:05:23;;;;;;;35.83;20.25;;;;;;;8.08;100.00;102021.88;5029495;28;20045;-77
2023/10/17 08:08:01;;;;;;;43.53;24.10;;;;;;;8.25;100.00;102016.88;5028002;28;20049;-76
2023/10/17 08:10:32;;;;;;;42.40;22.40;;;;;;;8.20;100.00;102011.72;5030655;28;20080;-76
2023/10/17 08:12:58;;;;;;;40.47;23.45;;;;;;;8.14;100.00;102011.94;5021591;28;20117;-75
2023/10/17 08:15:31;;;;;;;39.95;22.02;;;;;;;8.21;100.00;102012.56;5031353;28;20140;-76
2023/10/17 08:17:58;;;;;;;40.33;22.95;;;;;;;8.29;100.00;102019.38;5028706;28;20060;-76
2023/10/17 08:20:45;;;;;;;41.83;22.45;;;;;;;8.35;100.00;102010.31;5031894;28;20025;-76
2023/10/17 08:23:11;;;;;;;37.08;21.17;;;;;;;8.39;100.00;102008.44;5032736;28;20860;-77
2023/10/17 08:25:56;;;;;;;44.83;22.83;;;;;;;8.60;100.00;102012.13;5033649;28;20045;-76
2023/10/17 08:28:46;;;;;;;39.65;21.08;;;;;;;8.57;100.00;102003.31;5021068;28;20100;-75
2023/10/17 08:42:05;;;;;;;36.53;21.65;;;;;;;9.02;100.00;101985.72;5016386;28;20036;-77
2023/10/17 08:44:33;;;;;;;38.58;20.77;;;;;;;9.03;100.00;101993.63;5030483;28;20045;-77
2023/10/17 08:47:01;;;;;;;39.80;20.63;;;;;;;9.03;100.00;101990.09;5027053;28;20034;-77
2023/10/17 08:49:31;;;;;;;36.08;21.60;;;;;;;9.11;100.00;101985.34;5026435;28;20052;-76
2023/10/17 08:51:58;;;;;;;38.42;22.08;;;;;;;9.24;100.00;101986.63;5016670;28;20044;-75
2023/10/17 08:54:30;;;;;;;30.17;19.30;;;;;;;9.18;100.00;101984.19;5029993;28;20084;-76
2023/10/17 08:56:59;;;;;;;39.40;20.63;;;;;;;9.31;100.00;101987.25;5026050;28;20120;-77
2023/10/17 09:05:00;;;;;;;38.83;20.33;;;;;;;9.52;100.00;101996.16;5029814;28;20098;-76
2023/10/17 09:07:41;;;;;;;34.33;19.52;;;;;;;9.41;100.00;101990.41;5030519;28;20049;-76
2023/10/17 09:10:37;;;;;;;28.33;18.77;;;;;;;9.44;100.00;101985.84;5028691;28;20909;-76
2023/10/17 09:15:48;;;;;;;39.40;20.45;;;;;;;9.72;100.00;101990.88;5025676;28;20037;-76
2023/10/17 09:18:14;;;;;;;35.85;18.48;;;;;;;9.72;100.00;101988.22;5025449;28;20033;-75
2023/10/17 09:20:40;;;;;;;30.33;18.17;;;;;;;9.78;100.00;101995.09;5030357;28;20072;-75
2023/10/17 09:23:28;;;;;;;32.42;20.25;;;;;;;9.97;100.00;101995.19;5025812;28;20038;-76
2023/10/17 09:26:00;;;;;;;30.92;18.48;;;;;;;9.93;100.00;102005.09;5029937;28;20079;-76
2023/10/17 09:28:28;;;;;;;31.80;18.83;;;;;;;10.08;100.00;102007.09;5038544;28;20103;-77
2023/10/17 09:31:12;;;;;;;28.58;17.60;;;;;;;10.22;100.00;102009.19;5030586;28;20034;-76
2023/10/17 09:33:44;;;;;;;26.67;16.50;;;;;;;10.33;100.00;102004.28;5024817;28;20136;-76
2023/10/17 09:36:12;;;;;;;26.42;16.30;;;;;;;10.26;100.00;101991.31;5032756;28;20037;-74
2023/10/17 09:38:43;;;;;;;24.17;16.08;;;;;;;10.31;100.00;101995.50;5023323;28;20041;-76
2023/10/17 09:41:11;;;;;;;24.97;15.53;;;;;;;10.35;100.00;101985.59;5028113;28;20040;-74
2023/10/17 09:43:37;;;;;;;24.83;15.95;;;;;;;10.49;100.00;101985.84;5026147;28;20037;-76
2023/10/17 09:46:06;;;;;;;30.13;16.98;;;;;;;10.62;100.00;101989.66;5029614;28;20037;-76
2023/10/17 09:48:37;;;;;;;26.92;16.05;;;;;;;10.80;100.00;101987.97;5026303;28;20029;-75
2023/10/17 09:51:03;;;;;;;26.02;14.82;;;;;;;10.77;100.00;101993.44;5028473;28;20061;-76
2023/10/17 09:53:40;;;;;;;24.30;14.90;;;;;;;10.84;100.00;101999.34;5020678;28;20033;-76
2023/10/17 09:56:12;;;;;;;23.55;14.20;;;;;;;10.97;100.00;101997.88;5025314;28;20057;-76
2023/10/17 09:58:45;;;;;;;24.25;14.48;;;;;;;10.72;100.00;101994.59;5028047;28;20045;-75
2023/10/17 10:01:17;;;;;;;25.80;15.32;;;;;;;10.75;100.00;102000.66;5029406;28;20065;-76
2023/10/17 10:03:45;;;;;;;30.02;15.35;;;;;;;10.70;100.00;101996.47;5028437;28;20040;-75
2023/10/17 10:06:23;;;;;;;23.55;13.45;;;;;;;10.68;100.00;102007.19;5029177;28;20053;-75
2023/10/17 10:08:54;;;;;;;23.30;14.45;;;;;;;10.84;100.00;102002.03;5024144;28;20050;-76
2023/10/17 10:11:19;;;;;;;25.13;13.63;;;;;;;10.99;100.00;102006.66;5030057;28;20046;-76
2023/10/17 10:14:04;;;;;;;20.55;12.00;;;;;;;11.09;100.00;101997.31;5024819;28;20034;-76
2023/10/17 10:17:05;;;;;;;19.90;13.05;;;;;;;11.25;100.00;102004.59;5025089;28;20026;-75
2023/10/17 10:19:40;;;;;;;20.33;11.85;;;;;;;11.15;100.00;101993.47;5019190;28;20163;-74
2023/10/17 10:22:07;;;;;;;19.65;11.57;;;;;;;11.21;100.00;101993.19;5028499;28;20033;-75
2023/10/17 10:24:36;;;;;;;21.35;12.27;;;;;;;11.05;100.00;101993.03;5040058;28;20069;-76
2023/10/17 10:27:14;;;;;;;24.58;13.15;;;;;;;11.20;100.00;101998.59;5033924;28;20068;-74
2023/10/17 10:29:40;;;;;;;16.85;11.05;;;;;;;11.02;100.00;101985.16;5034223;28;20980;-75
2023/10/17 10:32:26;;;;;;;21.83;12.13;;;;;;;11.17;100.00;101982.72;5031837;28;20044;-75
2023/10/17 10:34:53;;;;;;;21.42;10.38;;;;;;;11.27;100.00;101981.34;5028415;28;20151;-75
2023/10/17 10:37:21;;;;;;;22.67;12.82;;;;;;;11.02;100.00;101984.31;5032018;28;20037;-76
2023/10/17 10:40:16;;;;;;;22.27;13.77;;;;;;;10.99;100.00;101971.94;5029864;28;20033;-75
2023/10/17 10:42:49;;;;;;;19.65;11.23;;;;;;;11.06;100.00;101967.22;5060675;28;20038;-75
2023/10/17 10:45:31;;;;;;;19.00;11.70;;;;;;;11.09;100.00;101967.94;5021476;28;20037;-75
2023/10/17 10:47:58;;;;;;;20.05;11.88;;;;;;;11.16;100.00;101955.16;5029118;28;20038;-75
2023/10/17 10:50:33;;;;;;;20.83;10.70;;;;;;;11.15;100.00;101964.13;5032100;28;20041;-75
2023/10/17 10:53:17;;;;;;;19.10;11.27;;;;;;;11.33;100.00;101959.69;5024922;28;20037;-75
2023/10/17 10:55:49;;;;;;;22.38;12.02;;;;;;;11.32;100.00;101957.94;5027493;28;20048;-77
2023/10/17 10:58:15;;;;;;;18.55;11.55;;;;;;;11.32;100.00;101961.47;5020961;28;20042;-76
2023/10/17 11:00:40;;;;;;;14.32;9.65;;;;;;;11.49;100.00;101941.94;5031778;28;20041;-77
2023/10/17 11:03:06;;;;;;;23.33;10.50;;;;;;;11.58;100.00;101948.66;5064228;28;20042;-76
2023/10/17 11:05:33;;;;;;;19.13;10.88;;;;;;;11.67;100.00;101934.84;5019044;28;20045;-74
2023/10/17 11:08:02;;;;;;;21.95;9.90;;;;;;;11.42;100.00;101932.53;5026538;28;20080;-74
2023/10/17 11:10:29;;;;;;;19.67;9.68;;;;;;;11.44;100.00;101929.78;5029052;28;20088;-76
2023/10/17 11:12:55;;;;;;;14.40;9.45;;;;;;;11.46;100.00;101938.59;5025798;28;20069;-76
2023/10/17 11:15:27;;;;;;;13.23;9.25;;;;;;;11.35;100.00;101939.13;5021282;28;20045;-75
2023/10/17 11:18:03;;;;;;;16.65;8.63;;;;;;;11.39;100.00;101925.50;5022809;28;20044;-76
2023/10/17 11:20:28;;;;;;;13.73;8.00;;;;;;;11.41;100.00;101918.31;5034012;28;20148;-76
2023/10/17 11:22:55;;;;;;;17.58;8.23;;;;;;;11.37;100.00;101918.53;5019798;28;20126;-75
2023/10/17 11:25:27;;;;;;;12.05;8.32;;;;;;;11.60;100.00;101904.91;5016359;28;20037;-75
2023/10/17 11:27:55;;;;;;;13.80;7.10;;;;;;;11.66;100.00;101901.91;5024269;28;20033;-75
2023/10/17 11:30:32;;;;;;;14.18;6.68;;;;;;;11.43;100.00;101893.31;5025276;28;20137;-75
2023/10/17 11:33:03;;;;;;;12.45;6.38;;;;;;;11.70;100.00;101899.06;5018871;28;20104;-76
2023/10/17 11:35:31;;;;;;;13.27;7.22;;;;;;;11.71;100.00;101888.31;5032770;28;20041;-75
2023/10/17 11:37:58;;;;;;;10.25;6.25;;;;;;;11.76;100.00;101888.09;5019260;28;20072;-75
2023/10/17 11:40:45;;;;;;;8.65;6.13;;;;;;;11.88;100.00;101883.00;5020203;28;20116;-76
2023/10/17 11:43:28;;;;;;;11.32;7.38;;;;;;;11.62;100.00;101870.94;5020014;28;20126;-75
2023/10/17 11:45:59;;;;;;;8.50;6.13;;;;;;;12.01;100.00;101882.38;5029353;28;20114;-74
2023/10/17 11:48:31;;;;;;;10.88;5.85;;;;;;;12.00;100.00;101875.25;5027916;28;20045;-76
2023/10/17 11:51:29;;;;;;;10.13;5.60;;;;;;;11.92;100.00;101868.53;5020039;28;20041;-75
2023/10/17 11:54:10;;;;;;;9.10;5.88;;;;;;;11.75;100.00;101867.66;5026951;28;20045;-75
2023/10/17 11:56:39;;;;;;;12.30;6.47;;;;;;;11.95;100.00;101863.94;5020294;28;20073;-75
2023/10/17 11:59:10;;;;;;;8.50;5.40;;;;;;;12.03;100.00;101872.44;5026099;28;20041;-75
2023/10/17 12:01:36;;;;;;;13.33;5.50;;;;;;;12.09;100.00;101862.28;5027813;28;20041;-76
2023/10/17 12:04:06;;;;;;;9.35;5.35;;;;;;;12.13;100.00;101858.50;5022123;28;20052;-74
2023/10/17 12:06:35;;;;;;;9.63;5.88;;;;;;;12.13;100.00;101855.81;5019136;28;20118;-74
2023/10/17 12:09:17;;;;;;;9.38;5.72;;;;;;;12.10;100.00;101850.66;5019076;28;20052;-75
2023/10/17 12:11:47;;;;;;;8.57;5.10;;;;;;;12.25;100.00;101842.72;5026360;28;20033;-75
2023/10/17 12:14:21;;;;;;;7.43;4.70;;;;;;;12.28;100.00;101835.41;5022991;28;20033;-74
2023/10/17 12:16:54;;;;;;;9.45;4.82;;;;;;;12.33;100.00;101848.53;5026729;28;20038;-75
2023/10/17 12:19:26;;;;;;;13.55;5.78;;;;;;;12.70;100.00;101856.28;5030594;28;20127;-73
2023/10/17 12:21:53;;;;;;;;;;;;;;;12.96;100.00;101845.91;5028629;28;20037;-74
2023/10/17 12:24:24;;;;;;;17.65;9.30;;;;;;;12.73;100.00;101849.88;5026844;28;19921;-74
2023/10/17 12:26:52;;;;;;;9.35;6.05;;;;;;;12.58;100.00;101846.22;5062482;28;20041;-74
2023/10/17 12:29:19;;;;;;;11.15;6.18;;;;;;;12.31;100.00;101840.59;5026088;28;20041;-74
2023/10/17 12:31:45;;;;;;;10.40;5.63;;;;;;;12.03;100.00;101849.25;5026518;28;20037;-74
2023/10/17 12:34:15;;;;;;;9.27;6.05;;;;;;;12.21;100.00;101843.88;5021960;28;20144;-75
2023/10/17 12:36:41;;;;;;;12.45;5.80;;;;;;;12.14;100.00;101840.63;5029812;28;20037;-75
2023/10/17 12:39:06;;;;;;;9.27;6.15;;;;;;;12.38;100.00;101833.09;5030165;28;20041;-75
2023/10/17 12:41:35;;;;;;;17.30;9.25;;;;;;;12.51;100.00;101828.81;5025583;28;20581;-74
2023/10/17 12:44:01;;;;;;;11.35;7.78;;;;;;;12.54;100.00;101823.28;5033292;28;20038;-75
2023/10/17 12:46:27;;;;;;;13.52;6.55;;;;;;;12.54;100.00;101817.91;5021064;28;20217;-75
2023/10/17 12:48:53;;;;;;;9.32;6.10;;;;;;;12.54;100.00;101812.56;5030335;28;20045;-74
2023/10/17 12:51:20;;;;;;;11.73;6.65;;;;;;;12.47;100.00;101805.84;5028934;28;20056;-74
2023/10/17 12:53:46;;;;;;;8.35;5.75;;;;;;;12.32;100.00;101794.19;5025267;28;20046;-74
2023/10/17 12:56:12;;;;;;;7.88;5.50;;;;;;;12.35;100.00;101794.03;5025898;28;20041;-75
2023/10/17 12:58:38;;;;;;;10.15;5.57;;;;;;;12.34;100.00;101781.56;5030357;28;20033;-75
2023/10/17 13:01:04;;;;;;;7.63;5.57;;;;;;;12.33;100.00;101779.84;5023402;28;20046;-74
2023/10/17 13:03:33;;;;;;;8.73;4.90;;;;;;;12.55;100.00;101775.97;5024651;28;20061;-75
2023/10/17 13:06:00;;;;;;;8.80;5.40;;;;;;;12.41;100.00;101772.28;5019860;28;20904;-74
2023/10/17 13:08:25;;;;;;;7.00;4.90;;;;;;;12.37;100.00;101768.03;5022285;28;20073;-74
2023/10/17 13:10:54;;;;;;;7.90;4.40;;;;;;;12.41;100.00;101760.72;5019883;28;20080;-74
2023/10/17 13:13:19;;;;;;;6.25;4.32;;;;;;;12.45;100.00;101759.59;5014673;28;20036;-75
2023/10/17 13:15:45;;;;;;;6.55;4.63;;;;;;;12.47;100.00;101763.03;5033044;28;20030;-74
2023/10/17 13:18:12;;;;;;;10.25;5.40;;;;;;;12.38;100.00;101758.19;5033580;28;20041;-75
2023/10/17 13:20:38;;;;;;;9.38;4.95;;;;;;;12.43;100.00;101751.66;5060079;28;20056;-75
2023/10/17 13:23:04;;;;;;;9.38;5.05;;;;;;;12.45;100.00;101748.91;5033358;28;20052;-75
2023/10/17 13:25:38;;;;;;;10.15;5.10;;;;;;;12.47;100.00;101744.31;5029470;28;20091;-74
2023/10/17 13:28:04;;;;;;;6.57;4.82;;;;;;;12.44;100.00;101747.16;5034390;28;20856;-76
2023/10/17 13:30:31;;;;;;;7.63;5.43;;;;;;;12.32;100.00;101753.22;5025631;28;20041;-75
2023/10/17 13:32:57;;;;;;;7.35;4.82;;;;;;;12.36;99.18;101744.94;5033807;28;20030;-74
2023/10/17 13:35:22;;;;;;;12.00;5.18;;;;;;;12.41;100.00;101747.34;5026203;28;20063;-74
2023/10/17 13:37:51;;;;;;;11.02;5.57;;;;;;;12.44;99.52;101741.81;5030032;28;20100;-75
2023/10/17 13:40:19;;;;;;;10.88;4.50;;;;;;;12.33;97.54;101739.75;5022814;28;20037;-74
2023/10/17 13:42:45;;;;;;;8.68;4.10;;;;;;;12.40;99.11;101737.59;5026287;28;20137;-74
2023/10/17 13:45:13;;;;;;;10.85;5.15;;;;;;;12.40;99.74;101732.25;5032798;28;20471;-74
2023/10/17 13:47:40;;;;;;;8.27;4.95;;;;;;;12.34;97.58;101714.72;5023579;28;20155;-75
2023/10/17 13:50:06;;;;;;;8.10;4.50;;;;;;;12.32;97.88;101715.75;5032173;28;20928;-74